createdAt,value
2018-07-23T00:00:33.420Z,4.93
2018-07-23T00:03:01.776Z,5.13
2018-07-23T00:05:30.455Z,4.97
2018-07-23T00:07:58.770Z,5.13
2018-07-23T00:10:27.120Z,4.80
2018-07-23T00:12:55.521Z,4.20
2018-07-23T00:15:23.876Z,7.53
2018-07-23T00:17:52.244Z,4.10
2018-07-23T00:20:20.578Z,5.00
2018-07-23T00:22:48.881Z,4.90
2018-07-23T00:25:17.232Z,8.43
2018-07-23T00:27:45.583Z,4.73
2018-07-23T00:30:13.881Z,4.57
2018-07-23T00:32:42.184Z,4.53
2018-07-23T00:35:10.660Z,4.53
2018-07-23T00:37:39.080Z,5.17
2018-07-23T00:40:07.972Z,4.47
2018-07-23T00:42:36.430Z,4.23
2018-07-23T00:45:04.933Z,4.20
2018-07-23T00:47:33.296Z,4.57
2018-07-23T00:50:02.619Z,4.10
2018-07-23T00:52:31.035Z,5.87
2018-07-23T00:54:59.434Z,6.40
2018-07-23T00:57:27.792Z,5.13
2018-07-23T00:59:56.125Z,5.20
2018-07-23T01:02:24.567Z,5.13
2018-07-23T01:04:53.302Z,4.77
2018-07-23T01:07:21.652Z,4.63
2018-07-23T01:09:50.396Z,5.57
2018-07-23T01:12:30.392Z,4.70
2018-07-23T01:14:58.488Z,4.70
2018-07-23T01:17:26.615Z,4.70
2018-07-23T01:19:56.005Z,5.40
2018-07-23T01:22:25.397Z,6.03
2018-07-23T01:24:54.515Z,5.20
2018-07-23T01:27:22.881Z,4.70
2018-07-23T01:29:51.216Z,5.83
2018-07-23T01:32:20.032Z,6.17
2018-07-23T01:34:48.603Z,6.30
2018-07-23T01:37:18.043Z,5.20
2018-07-23T01:39:46.483Z,7.97
2018-07-23T01:42:14.846Z,5.17
2018-07-23T01:44:43.204Z,5.60
2018-07-23T01:47:11.601Z,5.10
2018-07-23T01:49:39.990Z,5.30
2018-07-23T01:52:08.359Z,5.27
2018-07-23T01:54:36.676Z,5.63
2018-07-23T01:57:05.015Z,4.63
2018-07-23T01:59:33.432Z,4.67
2018-07-23T02:02:01.769Z,4.97
2018-07-23T02:04:30.271Z,5.20
2018-07-23T02:06:58.641Z,5.87
2018-07-23T02:09:27.007Z,4.83
2018-07-23T02:11:55.355Z,5.90
2018-07-23T02:14:23.707Z,7.57
2018-07-23T02:16:52.045Z,5.20
2018-07-23T02:19:20.431Z,6.27
2018-07-23T02:21:48.784Z,5.50
2018-07-23T02:24:17.123Z,6.10
2018-07-23T02:26:45.512Z,5.83
2018-07-23T02:29:13.860Z,7.07
2018-07-23T02:31:42.249Z,4.60
2018-07-23T02:34:10.623Z,4.80
2018-07-23T02:36:38.958Z,2.73
2018-07-23T02:39:09.584Z,2.50
2018-07-23T02:41:37.977Z,2.00
2018-07-23T02:44:06.332Z,1.63
2018-07-23T02:46:34.672Z,1.70
2018-07-23T02:49:03.000Z,1.63
2018-07-23T02:51:31.420Z,1.77
2018-07-23T02:53:59.904Z,1.87
2018-07-23T02:56:28.305Z,1.50
2018-07-23T02:58:56.714Z,1.67
2018-07-23T03:01:25.086Z,1.60
2018-07-23T03:03:55.832Z,2.87
2018-07-23T03:06:25.192Z,2.03
2018-07-23T03:08:53.547Z,2.10
2018-07-23T03:11:22.135Z,1.37
2018-07-23T03:13:50.580Z,1.33
2018-07-23T03:16:19.369Z,1.40
2018-07-23T03:18:47.669Z,1.30
2018-07-23T03:21:16.056Z,3.30
2018-07-23T03:23:44.421Z,1.70
2018-07-23T03:26:12.821Z,1.43
2018-07-23T03:28:41.200Z,1.67
2018-07-23T03:31:09.597Z,1.50
2018-07-23T03:33:37.916Z,2.73
2018-07-23T03:36:06.303Z,1.63
2018-07-23T03:38:34.671Z,1.80
2018-07-23T03:41:03.046Z,1.70
2018-07-23T03:43:31.403Z,1.23
2018-07-23T03:45:59.793Z,1.63
2018-07-23T03:48:28.217Z,1.67
2018-07-23T03:50:56.564Z,1.40
2018-07-23T03:53:24.952Z,3.30
2018-07-23T03:55:53.323Z,2.60
2018-07-23T03:58:21.713Z,1.70
2018-07-23T04:00:50.068Z,1.73
2018-07-23T04:03:18.381Z,2.73
2018-07-23T04:05:46.732Z,2.23
2018-07-23T04:08:15.088Z,1.50
2018-07-23T04:10:43.520Z,2.63
2018-07-23T04:13:11.683Z,1.63
2018-07-23T04:15:40.088Z,2.20
2018-07-23T04:18:09.407Z,1.70
2018-07-23T04:20:37.732Z,2.23
2018-07-23T04:23:06.507Z,2.90
2018-07-23T04:25:34.987Z,2.00
2018-07-23T04:28:03.315Z,1.80
2018-07-23T04:30:31.699Z,2.10
2018-07-23T04:33:00.110Z,2.30
2018-07-23T04:35:28.498Z,1.40
2018-07-23T04:37:56.921Z,1.37
2018-07-23T04:40:25.240Z,1.50
2018-07-23T04:42:53.803Z,1.77
2018-07-23T04:45:22.081Z,1.63
2018-07-23T04:47:50.380Z,2.10
2018-07-23T04:50:18.676Z,1.60
2018-07-23T04:52:47.035Z,2.23
2018-07-23T04:55:15.477Z,1.80
2018-07-23T04:57:43.810Z,2.10
2018-07-23T05:00:12.530Z,2.47
2018-07-23T05:02:40.881Z,2.57
2018-07-23T05:05:09.268Z,2.17
2018-07-23T05:07:42.414Z,2.37
2018-07-23T05:10:10.951Z,2.23
2018-07-23T05:12:39.476Z,2.50
2018-07-23T05:15:08.123Z,3.40
2018-07-23T05:17:36.466Z,2.20
2018-07-23T05:20:05.004Z,2.00
2018-07-23T05:22:33.336Z,3.93
2018-07-23T05:25:01.674Z,3.70
2018-07-23T05:27:30.044Z,3.20
2018-07-23T05:29:58.090Z,2.47
2018-07-23T05:32:26.389Z,4.67
2018-07-23T05:34:54.720Z,6.37
2018-07-23T05:37:23.141Z,4.87
2018-07-23T05:39:51.519Z,4.60
2018-07-23T05:42:19.869Z,3.87
2018-07-23T05:44:48.221Z,3.13
2018-07-23T05:47:16.578Z,2.87
2018-07-23T05:49:44.920Z,2.47
2018-07-23T05:52:13.330Z,2.97
2018-07-23T05:54:41.692Z,7.03
2018-07-23T05:57:10.108Z,3.90
2018-07-23T05:59:38.507Z,3.50
2018-07-23T06:02:06.961Z,3.03
2018-07-23T06:04:35.240Z,3.33
2018-07-23T06:07:03.751Z,4.77
2018-07-23T06:09:31.992Z,3.03
2018-07-23T06:12:00.379Z,2.63
2018-07-23T06:14:45.372Z,6.07
2018-07-23T06:17:13.787Z,3.37
2018-07-23T06:19:42.173Z,3.03
2018-07-23T06:22:10.511Z,3.33
2018-07-23T06:24:38.880Z,3.40
2018-07-23T06:27:07.326Z,3.70
2018-07-23T06:29:35.647Z,2.80
2018-07-23T06:32:04.077Z,3.93
2018-07-23T06:34:32.492Z,3.53
2018-07-23T06:37:00.887Z,4.77
2018-07-23T06:39:29.337Z,3.37
2018-07-23T06:41:57.701Z,2.73
2018-07-23T06:44:26.132Z,3.30
2018-07-23T06:46:54.509Z,2.50
2018-07-23T06:49:22.886Z,3.63
2018-07-23T06:51:51.232Z,2.50
2018-07-23T06:54:19.613Z,2.43
2018-07-23T06:56:48.069Z,3.23
2018-07-23T06:59:16.372Z,3.00
2018-07-23T07:01:44.754Z,3.60
2018-07-23T07:04:13.123Z,2.83
2018-07-23T07:06:41.451Z,3.97
2018-07-23T07:09:10.458Z,3.13
2018-07-23T07:11:38.614Z,3.00
2018-07-23T07:14:28.451Z,3.70
2018-07-23T07:16:56.853Z,4.20
2018-07-23T07:19:25.228Z,3.73
2018-07-23T07:21:53.616Z,4.63
2018-07-23T07:24:21.963Z,8.10
2018-07-23T07:26:50.343Z,11.17
2018-07-23T07:29:18.691Z,7.33
2018-07-23T07:31:47.083Z,6.83
2018-07-23T07:34:15.114Z,4.53
2018-07-23T07:36:43.491Z,4.50
2018-07-23T07:39:12.995Z,4.07
2018-07-23T07:41:41.681Z,3.87
2018-07-23T07:44:10.229Z,3.30
2018-07-23T07:46:39.780Z,4.30
2018-07-23T07:49:08.367Z,3.40
2018-07-23T07:51:36.713Z,4.30
2018-07-23T07:54:05.145Z,5.90
2018-07-23T07:56:33.756Z,4.97
2018-07-23T07:59:02.069Z,7.23
2018-07-23T08:01:30.522Z,5.03
2018-07-23T08:03:58.824Z,4.67
2018-07-23T08:06:27.192Z,4.00
2018-07-23T08:08:55.260Z,3.23
2018-07-23T08:11:23.636Z,3.50
2018-07-23T08:13:51.996Z,2.40
2018-07-23T08:16:20.372Z,2.80
2018-07-23T08:18:48.741Z,3.10
2018-07-23T08:21:17.071Z,2.93
2018-07-23T08:23:45.443Z,3.40
2018-07-23T08:26:14.072Z,3.17
2018-07-23T08:28:42.422Z,2.53
2018-07-23T08:31:10.478Z,2.17
2018-07-23T08:33:38.836Z,2.47
2018-07-23T08:36:07.295Z,2.67
2018-07-23T08:38:35.653Z,1.77
2018-07-23T08:41:04.149Z,2.00
2018-07-23T08:43:32.523Z,3.70
2018-07-23T08:46:00.853Z,2.33
2018-07-23T08:48:29.236Z,4.23
2018-07-23T08:50:57.597Z,2.23
2018-07-23T08:53:25.950Z,3.63
2018-07-23T08:55:54.307Z,2.17
2018-07-23T08:58:23.576Z,3.33
2018-07-23T09:00:53.442Z,1.93
2018-07-23T09:03:22.781Z,2.13
2018-07-23T09:05:51.084Z,3.47
2018-07-23T09:08:19.472Z,2.10
2018-07-23T09:10:47.785Z,2.90
2018-07-23T09:13:16.113Z,1.80
2018-07-23T09:15:44.474Z,3.10
2018-07-23T09:18:12.800Z,2.73
2018-07-23T09:20:41.132Z,3.27
2018-07-23T09:23:11.375Z,2.93
2018-07-23T09:25:46.120Z,2.30
2018-07-23T09:28:15.376Z,1.70
2018-07-23T09:30:49.077Z,3.07
2018-07-23T09:33:17.431Z,2.60
2018-07-23T09:35:45.804Z,2.33
2018-07-23T09:38:14.173Z,3.03
2018-07-23T09:40:42.569Z,2.73
2018-07-23T09:43:12.654Z,2.30
2018-07-23T09:45:41.260Z,2.57
2018-07-23T09:48:11.266Z,2.83
2018-07-23T09:50:39.634Z,2.40
2018-07-23T09:53:09.525Z,1.80
2018-07-23T09:55:37.716Z,2.50
2018-07-23T09:58:06.101Z,2.60
2018-07-23T10:00:39.976Z,2.23
2018-07-23T10:03:08.355Z,2.27
2018-07-23T10:05:36.684Z,2.37
2018-07-23T10:08:05.084Z,2.20
2018-07-23T10:10:33.412Z,3.07
2018-07-23T10:13:01.761Z,2.50
2018-07-23T10:15:35.762Z,2.30
2018-07-23T10:18:04.093Z,2.50
2018-07-23T10:20:32.451Z,2.47
2018-07-23T10:23:00.759Z,2.60
2018-07-23T10:25:29.117Z,2.80
2018-07-23T10:27:57.431Z,2.33
2018-07-23T10:30:25.751Z,2.40
2018-07-23T10:32:54.123Z,2.83
2018-07-23T10:35:22.563Z,3.13
2018-07-23T10:37:50.832Z,3.13
2018-07-23T10:40:19.179Z,3.83
2018-07-23T10:42:47.405Z,3.20
2018-07-23T10:45:15.498Z,3.40
2018-07-23T10:47:43.824Z,3.13
2018-07-23T10:50:12.241Z,2.93
2018-07-23T10:52:40.580Z,3.30
2018-07-23T10:55:09.119Z,3.20
2018-07-23T10:57:37.525Z,3.60
2018-07-23T11:00:06.119Z,3.13
2018-07-23T11:02:34.409Z,4.70
2018-07-23T11:05:02.790Z,3.47
2018-07-23T11:07:31.225Z,3.47
2018-07-23T11:09:59.608Z,4.00
2018-07-23T11:12:27.981Z,3.73
2018-07-23T11:15:45.057Z,3.73
2018-07-23T11:18:13.400Z,3.80
2018-07-23T11:20:41.749Z,3.35
2018-07-23T11:23:11.823Z,3.60
2018-07-23T11:25:40.661Z,4.08
2018-07-23T11:28:08.601Z,3.60
2018-07-23T11:30:36.933Z,4.17
2018-07-23T11:33:05.240Z,3.90
2018-07-23T11:35:33.589Z,4.45
2018-07-23T11:38:01.977Z,4.47
2018-07-23T11:40:30.340Z,3.60
2018-07-23T11:42:58.831Z,3.92
2018-07-23T11:45:27.251Z,3.72
2018-07-23T11:47:55.599Z,3.92
2018-07-23T11:50:23.943Z,3.98
2018-07-23T11:52:52.269Z,4.20
2018-07-23T11:55:20.643Z,3.95
2018-07-23T11:57:49.036Z,3.72
2018-07-23T12:00:17.417Z,5.03
2018-07-23T12:02:45.737Z,4.67
2018-07-23T12:05:14.157Z,7.58
2018-07-23T12:07:42.538Z,5.28
2018-07-23T12:10:11.086Z,4.40
2018-07-23T12:12:39.399Z,3.70
2018-07-23T12:18:27.336Z,4.05
2018-07-23T12:20:55.783Z,3.83
2018-07-23T12:23:24.138Z,3.87
2018-07-23T12:25:52.514Z,4.00
2018-07-23T12:28:20.908Z,4.37
2018-07-23T12:30:49.284Z,4.80
2018-07-23T12:33:17.625Z,3.65
2018-07-23T12:35:46.041Z,3.55
2018-07-23T12:38:14.789Z,3.80
2018-07-23T12:40:43.168Z,3.50
2018-07-23T12:43:13.219Z,3.62
2018-07-23T12:45:41.556Z,3.37
2018-07-23T12:48:11.417Z,3.50
2018-07-23T12:50:39.807Z,3.42
2018-07-23T12:53:08.204Z,3.50
2018-07-23T12:55:36.517Z,3.85
2018-07-23T12:58:04.888Z,3.45
2018-07-23T13:00:33.280Z,3.40
2018-07-23T13:03:01.613Z,3.27
2018-07-23T13:05:32.224Z,3.10
2018-07-23T13:08:01.995Z,2.90
2018-07-23T13:10:30.333Z,3.77
2018-07-23T13:12:58.664Z,3.25
2018-07-23T13:16:13.412Z,2.95
2018-07-23T13:18:41.760Z,3.50
2018-07-23T13:21:10.108Z,3.35
2018-07-23T13:23:38.445Z,3.60
2018-07-23T13:26:07.004Z,3.62
2018-07-23T13:28:35.339Z,2.90
2018-07-23T13:31:03.754Z,3.58
2018-07-23T13:33:32.107Z,3.30
2018-07-23T13:36:00.607Z,3.20
2018-07-23T13:38:28.967Z,3.55
2018-07-23T13:40:57.312Z,3.20
2018-07-23T13:43:25.636Z,3.10
2018-07-23T13:45:54.021Z,3.42
2018-07-23T13:48:22.369Z,3.60
2018-07-23T13:50:50.762Z,3.05
2018-07-23T13:53:19.103Z,3.27
2018-07-23T13:55:47.437Z,3.12
2018-07-23T13:58:15.776Z,3.00
2018-07-23T14:00:44.135Z,3.55
2018-07-23T14:03:13.652Z,3.72
2018-07-23T14:05:42.021Z,2.92
2018-07-23T14:08:11.883Z,2.95
2018-07-23T14:10:40.187Z,2.98
2018-07-23T14:13:08.526Z,3.12
2018-07-23T14:16:21.334Z,3.20
2018-07-23T14:18:49.656Z,3.27
2018-07-23T14:21:18.020Z,3.17
2018-07-23T14:23:46.365Z,2.85
2018-07-23T14:26:14.744Z,3.00
2018-07-23T14:28:43.088Z,3.10
2018-07-23T14:31:11.440Z,3.20
2018-07-23T14:33:39.786Z,3.00
2018-07-23T14:36:08.111Z,3.40
2018-07-23T14:38:36.241Z,3.30
2018-07-23T14:41:04.596Z,4.60
2018-07-23T14:43:32.965Z,4.30
2018-07-23T14:46:01.292Z,4.12
2018-07-23T14:48:29.666Z,3.80
2018-07-23T14:50:58.042Z,4.17
2018-07-23T14:53:32.908Z,4.12
2018-07-23T14:56:01.249Z,4.33
2018-07-23T14:58:29.716Z,4.05
2018-07-23T15:00:58.122Z,4.00
2018-07-23T15:03:26.542Z,3.67
2018-07-23T15:05:54.899Z,4.20
2018-07-23T15:08:23.320Z,4.70
2018-07-23T15:10:51.721Z,4.05
2018-07-23T15:13:20.132Z,4.58
2018-07-23T15:16:32.461Z,4.08
2018-07-23T15:19:00.556Z,4.60
2018-07-23T15:21:28.905Z,3.92
2018-07-23T15:23:57.238Z,4.45
2018-07-23T15:26:25.632Z,4.12
2018-07-23T15:28:53.992Z,4.17
2018-07-23T15:31:22.373Z,3.83
2018-07-23T15:33:50.742Z,4.10
2018-07-23T15:36:19.107Z,3.80
2018-07-23T15:38:47.459Z,4.30
2018-07-23T15:41:15.840Z,3.72
2018-07-23T15:43:44.253Z,3.70
2018-07-23T15:46:12.716Z,3.70
2018-07-23T15:48:41.089Z,4.35
2018-07-23T15:51:09.374Z,4.30
2018-07-23T15:53:37.745Z,4.20
2018-07-23T15:56:06.213Z,3.87
2018-07-23T15:58:34.656Z,4.05
2018-07-23T16:01:03.098Z,3.50
2018-07-23T16:03:31.436Z,3.80
2018-07-23T16:05:59.495Z,3.70
2018-07-23T16:08:27.621Z,3.92
2018-07-23T16:11:03.182Z,4.05
2018-07-23T16:13:31.498Z,3.80
2018-07-23T16:16:42.546Z,3.98
2018-07-23T16:19:10.918Z,3.72
2018-07-23T16:21:39.347Z,3.75
2018-07-23T16:24:07.705Z,3.70
2018-07-23T16:26:36.102Z,4.10
2018-07-23T16:29:04.532Z,3.98
2018-07-23T16:31:32.901Z,3.60
2018-07-23T16:34:01.242Z,4.22
2018-07-23T16:36:29.628Z,3.70
2018-07-23T16:38:58.025Z,4.40
2018-07-23T16:41:26.447Z,4.15
2018-07-23T16:43:54.826Z,3.95
2018-07-23T16:46:23.220Z,3.45
2018-07-23T16:48:51.606Z,3.67
2018-07-23T16:51:19.992Z,3.98
2018-07-23T16:53:48.296Z,4.17
2018-07-23T16:56:16.677Z,3.90
2018-07-23T16:58:45.021Z,3.62
2018-07-23T17:01:13.325Z,3.60
2018-07-23T17:03:41.681Z,3.35
2018-07-23T17:06:10.069Z,3.70
2018-07-23T17:08:38.642Z,3.40
2018-07-23T17:11:09.431Z,3.05
2018-07-23T17:13:37.733Z,2.60
2018-07-23T17:16:52.831Z,3.37
2018-07-23T17:19:21.183Z,3.95
2018-07-23T17:21:49.638Z,3.67
2018-07-23T17:24:18.040Z,3.50
2018-07-23T17:26:46.364Z,4.20
2018-07-23T17:29:14.800Z,3.87
2018-07-23T17:31:42.871Z,4.17
2018-07-23T17:34:11.359Z,4.03
2018-07-23T17:36:39.719Z,3.90
2018-07-23T17:39:10.822Z,4.67
2018-07-23T17:41:39.156Z,4.22
2018-07-23T17:44:07.624Z,3.83
2018-07-23T17:46:36.024Z,4.17
2018-07-23T17:49:04.504Z,4.08
2018-07-23T17:51:32.879Z,3.85
2018-07-23T17:54:01.302Z,4.00
2018-07-23T17:56:29.868Z,5.85
2018-07-23T17:58:58.263Z,4.50
2018-07-23T18:01:26.576Z,4.37
2018-07-23T18:03:54.969Z,6.62
2018-07-23T18:06:23.494Z,4.60
2018-07-23T18:08:52.058Z,4.00
2018-07-23T18:11:20.232Z,4.10
2018-07-23T18:13:48.642Z,4.58
2018-07-23T18:17:03.376Z,4.12
2018-07-23T18:19:31.813Z,4.47
2018-07-23T18:22:00.219Z,4.50
2018-07-23T18:24:28.694Z,4.10
2018-07-23T18:26:57.405Z,3.87
2018-07-23T18:29:26.136Z,4.63
2018-07-23T18:31:55.232Z,4.40
2018-07-23T18:34:24.154Z,4.00
2018-07-23T18:36:53.169Z,4.37
2018-07-23T18:39:22.177Z,4.73
2018-07-23T18:41:51.140Z,4.47
2018-07-23T18:44:20.181Z,4.20
2018-07-23T18:46:49.273Z,4.20
2018-07-23T18:49:31.173Z,4.03
2018-07-23T18:52:00.305Z,4.20
2018-07-23T18:54:30.464Z,4.40
2018-07-23T18:57:00.858Z,4.67
2018-07-23T18:59:30.001Z,7.27
2018-07-23T19:01:59.729Z,4.60
2018-07-23T19:04:28.815Z,4.47
2018-07-23T19:06:57.997Z,4.63
2018-07-23T19:09:27.899Z,4.80
2018-07-23T19:11:57.674Z,4.60
2018-07-23T19:17:44.421Z,4.33
2018-07-23T19:20:13.594Z,4.40
2018-07-23T19:22:42.771Z,4.10
2018-07-23T19:25:12.041Z,4.63
2018-07-23T19:27:41.348Z,4.63
2018-07-23T19:30:10.972Z,4.53
2018-07-23T19:32:44.995Z,5.67
2018-07-23T19:35:19.430Z,4.03
2018-07-23T19:37:53.576Z,4.67
2018-07-23T19:40:26.624Z,5.60
2018-07-23T19:43:01.458Z,4.07
2018-07-23T19:45:35.629Z,4.50
2018-07-23T19:48:09.699Z,4.27
2018-07-23T19:50:44.046Z,4.00
2018-07-23T19:53:19.864Z,4.33
2018-07-23T19:55:53.481Z,4.27
2018-07-23T19:58:26.672Z,4.27
2018-07-23T20:01:00.483Z,4.00
2018-07-23T20:03:34.535Z,3.73
2018-07-23T20:06:08.494Z,4.43
2018-07-23T20:08:42.644Z,3.97
2018-07-23T20:11:18.054Z,4.03
2018-07-23T20:13:52.225Z,3.63
2018-07-23T20:17:10.008Z,4.03
2018-07-23T20:19:43.979Z,3.53
2018-07-23T20:22:18.093Z,3.90
2018-07-23T20:24:52.843Z,3.83
2018-07-23T20:30:57.711Z,3.80
2018-07-23T20:33:31.780Z,3.30
2018-07-23T20:36:06.515Z,3.67
2018-07-23T20:38:40.505Z,4.03
2018-07-23T20:41:14.645Z,3.53
2018-07-23T20:43:43.891Z,3.60
2018-07-23T20:46:13.001Z,3.47
2018-07-23T20:48:42.205Z,3.83
2018-07-23T20:51:11.297Z,3.53
2018-07-23T20:53:40.411Z,3.67
2018-07-23T20:56:09.626Z,3.57
2018-07-23T20:58:38.685Z,5.10
2018-07-23T21:01:07.824Z,3.97
2018-07-23T21:03:36.924Z,3.70
2018-07-23T21:06:06.079Z,3.83
2018-07-23T21:08:35.094Z,4.40
2018-07-23T21:11:08.085Z,3.63
2018-07-23T21:13:36.885Z,3.80
2018-07-23T21:19:32.913Z,4.23
2018-07-23T21:22:01.437Z,4.20
2018-07-23T21:24:30.095Z,4.30
2018-07-23T21:26:58.713Z,4.37
2018-07-23T21:29:27.227Z,4.37
2018-07-23T21:31:55.657Z,3.60
2018-07-23T21:34:24.100Z,4.37
2018-07-23T21:36:52.427Z,3.83
2018-07-23T21:39:20.785Z,4.83
2018-07-23T21:41:49.161Z,5.13
2018-07-23T21:44:17.505Z,4.13
2018-07-23T21:46:45.849Z,4.23
2018-07-23T21:49:14.209Z,5.53
2018-07-23T21:51:42.558Z,4.53
2018-07-23T21:54:10.967Z,4.57
2018-07-23T21:56:39.363Z,4.27
2018-07-23T21:59:07.839Z,4.33
2018-07-23T22:01:36.240Z,4.10
2018-07-23T22:04:04.709Z,4.10
2018-07-23T22:06:33.040Z,4.20
2018-07-23T22:09:01.385Z,4.50
2018-07-23T22:11:29.709Z,4.23
2018-07-23T22:13:58.012Z,4.37
2018-07-23T22:16:26.381Z,4.23
2018-07-23T22:18:54.728Z,4.30
2018-07-23T22:21:23.032Z,4.10
2018-07-23T22:23:51.357Z,4.77
2018-07-23T22:26:19.666Z,4.53
2018-07-23T22:28:48.027Z,5.87
2018-07-23T22:31:16.424Z,4.67
2018-07-23T22:33:44.765Z,4.37
2018-07-23T22:36:13.116Z,4.43
2018-07-23T22:38:41.493Z,4.20
2018-07-23T22:41:09.886Z,6.47
2018-07-23T22:43:38.221Z,5.20
2018-07-23T22:46:06.571Z,4.67
2018-07-23T22:48:34.989Z,4.57
2018-07-23T22:51:03.542Z,4.63
2018-07-23T22:53:31.952Z,4.50
2018-07-23T22:56:00.300Z,5.60
2018-07-23T22:58:38.390Z,5.53
2018-07-23T23:01:07.049Z,4.63
2018-07-23T23:03:35.423Z,4.30
2018-07-23T23:06:03.899Z,4.77
2018-07-23T23:08:32.063Z,4.30
2018-07-23T23:11:00.484Z,4.73
2018-07-23T23:13:28.865Z,4.70
2018-07-23T23:15:57.831Z,4.87
2018-07-23T23:18:26.187Z,4.17
2018-07-23T23:20:54.726Z,4.40
2018-07-23T23:23:25.000Z,5.00
2018-07-23T23:25:53.353Z,5.50
2018-07-23T23:28:21.757Z,4.70
2018-07-23T23:30:50.440Z,5.10
2018-07-23T23:33:18.973Z,5.07
2018-07-23T23:35:47.349Z,4.93
2018-07-23T23:38:16.503Z,5.13
2018-07-23T23:40:45.236Z,5.37
2018-07-23T23:43:15.465Z,5.63
2018-07-23T23:45:44.216Z,5.17
2018-07-23T23:48:14.186Z,5.57
2018-07-23T23:50:42.925Z,5.10
2018-07-23T23:53:11.360Z,4.83
2018-07-23T23:55:39.779Z,5.63
2018-07-23T23:58:09.344Z,5.17
